Time;durP1;ratioP1;P1;durP2;ratioP2;P2;SDS_P1;SDS_P2;PMS_P1;PMS_P2;Temp;Humidity;BMP_temperature;BMP_pressure;BME280_temperature;BME280_humidity;BME280_pressure;Samples;Min_cycle;Max_cycle;Signal;HPM_P1;HPM_P2
2023/01/06 00:00:35;;;;;;;2.40;1.60;;;;;;;4.95;100.00;99264.34;105979;1287;66598;-71
2023/01/06 00:03:18;;;;;;;2.20;1.40;;;;;;;4.94;100.00;99274.77;105960;1284;60972;-69
2023/01/06 00:05:44;;;;;;;1.90;1.60;;;;;;;4.94;100.00;99275.31;105959;1287;59664;-71
2023/01/06 00:08:10;;;;;;;3.10;1.50;;;;;;;4.92;100.00;99278.88;105715;1294;60133;-69
2023/01/06 00:10:36;;;;;;;2.60;1.40;;;;;;;4.90;100.00;99276.85;105970;1292;60222;-69
2023/01/06 00:13:02;;;;;;;3.40;1.50;;;;;;;4.90;100.00;99276.15;105715;1288;59825;-69
2023/01/06 00:15:29;;;;;;;2.70;1.60;;;;;;;4.89;100.00;99277.58;105971;1282;59805;-69
2023/01/06 00:17:55;;;;;;;4.50;1.80;;;;;;;4.88;100.00;99276.42;105969;1287;60197;-71
2023/01/06 00:20:21;;;;;;;3.60;2.20;;;;;;;4.86;100.00;99277.52;105614;1293;59850;-69
2023/01/06 00:22:47;;;;;;;2.90;2.00;;;;;;;4.86;100.00;99280.73;105999;1292;59671;-71
2023/01/06 00:25:13;;;;;;;2.30;1.70;;;;;;;4.83;100.00;99281.51;105702;1294;59925;-70
2023/01/06 00:27:41;;;;;;;2.50;1.70;;;;;;;4.81;100.00;99289.52;105664;1292;59817;-69
2023/01/06 00:30:08;;;;;;;3.30;1.90;;;;;;;4.78;100.00;99295.29;105978;1292;59654;-69
2023/01/06 00:32:34;;;;;;;2.70;2.00;;;;;;;4.74;100.00;99295.98;105969;1291;59748;-70
2023/01/06 00:35:02;;;;;;;2.90;2.30;;;;;;;4.70;100.00;99301.23;105952;1284;66851;-70
2023/01/06 00:37:28;;;;;;;2.40;1.60;;;;;;;4.66;100.00;99303.47;105965;1291;59844;-70
2023/01/06 00:39:54;;;;;;;3.90;2.10;;;;;;;4.63;100.00;99308.33;105941;1292;59716;-71
2023/01/06 00:42:23;;;;;;;3.60;2.20;;;;;;;4.60;100.00;99304.58;105982;1291;59975;-70
2023/01/06 00:44:50;;;;;;;2.80;1.80;;;;;;;4.57;100.00;99306.08;105967;1291;59736;-71
2023/01/06 00:47:16;;;;;;;2.40;2.10;;;;;;;4.55;100.00;99312.15;105967;1292;66712;-71
2023/01/06 00:49:42;;;;;;;3.00;2.00;;;;;;;4.52;100.00;99320.70;105977;1292;60972;-70
2023/01/06 00:52:08;;;;;;;3.10;2.10;;;;;;;4.50;100.00;99323.45;105952;1291;59664;-69
2023/01/06 00:54:35;;;;;;;4.70;2.10;;;;;;;4.46;100.00;99326.90;105961;1287;59761;-70
2023/01/06 00:57:04;;;;;;;5.40;2.00;;;;;;;4.45;100.00;99332.95;105990;1291;59682;-70
2023/01/06 00:59:30;;;;;;;2.90;2.10;;;;;;;4.43;100.00;99334.77;105962;1287;67911;-70
2023/01/06 01:01:57;;;;;;;3.20;1.60;;;;;;;4.39;100.00;99337.19;105686;1290;59844;-71
2023/01/06 01:04:25;;;;;;;3.60;1.80;;;;;;;4.37;100.00;99340.61;105930;1291;71381;-70
2023/01/06 01:06:52;;;;;;;2.30;1.30;;;;;;;4.34;100.00;99350.38;105939;1290;60146;-69
2023/01/06 01:09:21;;;;;;;4.30;1.80;;;;;;;4.33;100.00;99351.49;105745;1295;59651;-70
2023/01/06 01:14:33;;;;;;;4.20;1.90;;;;;;;4.31;100.00;99362.83;105737;1293;60823;-70
2023/01/06 01:16:59;;;;;;;1.70;1.40;;;;;;;4.29;100.00;99362.00;105951;1290;59802;-70
2023/01/06 01:19:26;;;;;;;4.70;2.00;;;;;;;4.27;100.00;99367.52;105682;1300;59822;-70
2023/01/06 01:21:52;;;;;;;4.00;1.70;;;;;;;4.26;100.00;99369.50;105980;1292;59638;-70
2023/01/06 01:24:19;;;;;;;4.70;1.70;;;;;;;4.25;100.00;99372.90;105662;1294;59761;-70
2023/01/06 01:26:46;;;;;;;2.60;1.20;;;;;;;4.24;100.00;99376.44;105982;1287;59714;-70
2023/01/06 01:29:14;;;;;;;3.20;2.00;;;;;;;4.23;100.00;99378.42;105642;1293;64814;-70
2023/01/06 01:31:41;;;;;;;4.90;2.00;;;;;;;4.21;100.00;99381.63;105952;1292;59700;-70
2023/01/06 01:34:10;;;;;;;4.50;2.20;;;;;;;4.19;100.00;99380.13;105960;1290;59648;-70
2023/01/06 01:36:38;;;;;;;2.60;2.00;;;;;;;4.17;100.00;99385.81;105934;1292;67633;-70
2023/01/06 01:39:04;;;;;;;4.60;2.30;;;;;;;4.15;100.00;99389.21;105651;1294;60764;-70
2023/01/06 01:41:31;;;;;;;4.30;1.70;;;;;;;4.13;100.00;99388.77;105963;1291;59791;-70
2023/01/06 01:44:21;;;;;;;4.20;2.10;;;;;;;4.11;100.00;99391.12;105956;1294;60111;-70
2023/01/06 01:46:48;;;;;;;3.80;1.80;;;;;;;4.10;100.00;99392.04;105979;1291;59702;-70
2023/01/06 01:49:20;;;;;;;4.30;1.90;;;;;;;4.08;100.00;99390.69;105962;1287;67885;-69
2023/01/06 01:51:48;;;;;;;2.20;1.70;;;;;;;4.06;100.00;99391.65;105939;1290;66873;-70
2023/01/06 01:54:20;;;;;;;1.90;1.50;;;;;;;4.05;100.00;99392.56;105975;1292;65152;-70
2023/01/06 01:56:52;;;;;;;4.70;1.60;;;;;;;4.03;100.00;99398.59;105977;1282;59720;-70
2023/01/06 01:59:22;;;;;;;1.60;1.50;;;;;;;4.02;100.00;99397.41;105984;1287;59743;-70
2023/01/06 02:01:49;;;;;;;3.60;1.10;;;;;;;4.00;100.00;99398.00;105955;1295;68073;-70
2023/01/06 02:04:17;;;;;;;2.80;1.60;;;;;;;3.99;100.00;99402.80;105619;1290;60841;-69
2023/01/06 02:06:47;;;;;;;4.00;1.20;;;;;;;3.98;100.00;99406.52;105940;1291;65098;-70
2023/01/06 02:09:22;;;;;;;2.10;1.70;;;;;;;3.96;100.00;99408.69;105619;1300;59741;-69
2023/01/06 02:11:51;;;;;;;4.20;1.70;;;;;;;3.95;100.00;99408.73;105981;1285;59870;-70
2023/01/06 02:14:22;;;;;;;2.50;1.30;;;;;;;3.93;100.00;99411.21;105994;1287;68050;-70
2023/01/06 02:17:25;;;;;;;2.90;1.30;;;;;;;3.93;100.00;99414.41;105947;1287;60928;-70
2023/01/06 02:20:10;;;;;;;4.10;1.60;;;;;;;3.92;100.00;99418.48;105975;1290;64950;-69
2023/01/06 02:23:00;;;;;;;3.40;1.60;;;;;;;3.92;100.00;99418.66;105941;1292;59682;-69
2023/01/06 02:25:54;;;;;;;3.10;1.50;;;;;;;3.91;100.00;99424.66;105979;1295;59728;-70
2023/01/06 02:28:48;;;;;;;3.20;1.70;;;;;;;3.90;100.00;99419.61;105968;1288;66764;-70
2023/01/06 02:31:17;;;;;;;3.90;1.70;;;;;;;3.88;100.00;99419.83;105949;1287;60651;-69
2023/01/06 02:34:02;;;;;;;3.00;1.80;;;;;;;3.88;100.00;99420.73;105953;1295;65013;-70
2023/01/06 02:37:13;;;;;;;3.30;1.80;;;;;;;3.88;100.00;99421.09;105937;1284;59800;-70
2023/01/06 02:39:57;;;;;;;3.60;1.50;;;;;;;3.87;100.00;99419.01;105442;1289;59779;-70
2023/01/06 02:42:45;;;;;;;2.90;1.90;;;;;;;3.86;100.00;99424.11;105388;1297;66611;-69
2023/01/06 02:45:18;;;;;;;5.80;2.10;;;;;;;3.87;100.00;99426.73;105444;1299;60841;-69
2023/01/06 02:48:11;;;;;;;5.30;2.60;;;;;;;3.87;100.00;99432.71;105410;1298;65379;-69
2023/01/06 02:51:09;;;;;;;2.70;1.80;;;;;;;3.87;100.00;99435.88;105415;1297;59832;-69
2023/01/06 02:54:10;;;;;;;4.60;1.90;;;;;;;3.86;100.00;99438.52;104775;1305;59705;-70
2023/01/06 02:56:41;;;;;;;4.40;2.90;;;;;;;3.87;100.00;99443.79;103989;1311;66764;-69
2023/01/06 02:59:21;;;;;;;4.90;1.90;;;;;;;3.87;100.00;99445.73;103889;1318;61151;-70
2023/01/06 03:01:51;;;;;;;2.20;1.70;;;;;;;3.87;100.00;99448.70;103791;1315;64226;-70
2023/01/06 03:04:32;;;;;;;3.90;1.60;;;;;;;3.87;100.00;99443.26;103938;1312;59895;-70
2023/01/06 03:07:01;;;;;;;2.20;1.40;;;;;;;3.85;100.00;99441.73;103971;1311;59791;-70
2023/01/06 03:09:32;;;;;;;4.10;1.70;;;;;;;3.85;100.00;99443.50;103991;1311;67762;-70
2023/01/06 03:12:01;;;;;;;2.10;1.80;;;;;;;3.84;100.00;99443.01;103932;1313;69138;-70
2023/01/06 03:14:34;;;;;;;2.10;1.60;;;;;;;3.81;100.00;99440.80;104000;1310;64886;-71
2023/01/06 03:17:00;;;;;;;7.50;2.20;;;;;;;3.80;100.00;99438.23;104307;1311;59970;-70
2023/01/06 03:19:26;;;;;;;6.80;2.50;;;;;;;3.79;100.00;99436.15;104576;1306;59795;-70
2023/01/06 03:21:54;;;;;;;2.80;1.80;;;;;;;3.76;100.00;99436.92;104558;1306;66639;-70
2023/01/06 03:24:20;;;;;;;3.80;2.50;;;;;;;3.74;100.00;99436.99;104582;1311;61047;-70
2023/01/06 03:26:47;;;;;;;4.00;2.40;;;;;;;3.72;100.00;99437.92;104324;1309;59703;-70
2023/01/06 03:29:16;;;;;;;4.80;2.60;;;;;;;3.71;100.00;99439.55;104561;1306;59881;-70
2023/01/06 03:32:01;;;;;;;5.70;2.90;;;;;;;3.69;100.00;99439.79;105183;1300;59872;-70
2023/01/06 03:34:50;;;;;;;3.10;2.60;;;;;;;3.67;100.00;99441.60;105723;1295;67700;-70
2023/01/06 03:37:31;;;;;;;4.00;2.40;;;;;;;3.66;100.00;99445.16;105956;1292;59938;-71
2023/01/06 03:40:12;;;;;;;4.20;2.00;;;;;;;3.66;100.00;99450.59;105978;1292;64075;-70
2023/01/06 03:45:44;;;;;;;4.50;2.90;;;;;;;3.64;100.00;99447.13;106012;1284;59994;-70
2023/01/06 03:48:49;;;;;;;5.70;3.30;;;;;;;3.63;100.00;99445.25;105990;1287;68108;-70
2023/01/06 03:51:27;;;;;;;4.50;2.70;;;;;;;3.62;100.00;99443.55;105230;1293;59878;-70
2023/01/06 03:54:20;;;;;;;4.00;2.40;;;;;;;3.60;100.00;99445.52;105240;1299;64874;-70
2023/01/06 03:56:49;;;;;;;6.20;2.40;;;;;;;3.58;100.00;99445.23;105253;1297;59657;-70
2023/01/06 03:59:27;;;;;;;6.30;2.90;;;;;;;3.56;100.00;99445.82;105251;1299;59743;-71
2023/01/06 04:01:53;;;;;;;3.40;2.20;;;;;;;3.53;100.00;99448.20;105256;1303;67642;-70
2023/01/06 04:04:20;;;;;;;5.20;2.50;;;;;;;3.51;100.00;99446.34;105269;1306;59783;-70
2023/01/06 04:06:46;;;;;;;5.30;3.50;;;;;;;3.47;100.00;99443.09;105228;1299;59884;-70
2023/01/06 04:09:12;;;;;;;4.40;2.40;;;;;;;3.43;100.00;99441.13;105262;1306;59865;-70
2023/01/06 04:14:23;;;;;;;4.50;2.90;;;;;;;3.33;100.00;99443.72;105242;1302;76012;-70
2023/01/06 04:16:49;;;;;;;6.60;3.00;;;;;;;3.29;100.00;99442.07;105261;1305;60272;-70
2023/01/06 04:19:17;;;;;;;5.00;2.90;;;;;;;3.25;100.00;99443.77;105253;1290;60221;-70
2023/01/06 04:21:42;;;;;;;2.60;2.40;;;;;;;3.21;100.00;99454.98;105267;1304;59817;-70
2023/01/06 04:24:08;;;;;;;4.00;3.10;;;;;;;3.16;100.00;99459.14;105278;1298;59884;-69
2023/01/06 04:26:34;;;;;;;5.70;3.20;;;;;;;3.14;100.00;99457.80;105265;1298;59783;-70
2023/01/06 04:29:01;;;;;;;5.40;2.80;;;;;;;3.13;100.00;99458.02;105727;1291;60304;-70
2023/01/06 04:31:27;;;;;;;5.50;2.90;;;;;;;3.11;100.00;99461.40;105940;1292;59642;-70
2023/01/06 04:33:53;;;;;;;5.10;2.70;;;;;;;3.10;100.00;99461.61;105985;1292;60383;-69
2023/01/06 04:36:19;;;;;;;4.50;3.00;;;;;;;3.08;100.00;99460.61;105967;1291;59687;-70
2023/01/06 04:38:45;;;;;;;4.00;2.40;;;;;;;3.07;100.00;99464.84;106010;1284;60064;-71
2023/01/06 04:41:12;;;;;;;4.40;2.90;;;;;;;3.07;100.00;99472.77;105992;1290;59823;-70
2023/01/06 04:43:37;;;;;;;3.20;2.70;;;;;;;3.07;100.00;99472.23;105928;1295;59972;-71
2023/01/06 04:46:04;;;;;;;2.50;2.30;;;;;;;3.06;100.00;99474.88;105995;1283;61095;-70
2023/01/06 04:48:31;;;;;;;5.90;2.70;;;;;;;3.06;100.00;99481.89;105981;1291;66763;-71
2023/01/06 04:51:05;;;;;;;5.80;3.10;;;;;;;3.06;100.00;99485.23;105971;1295;59617;-70
2023/01/06 04:53:39;;;;;;;3.90;2.20;;;;;;;3.07;100.00;99483.27;105964;1287;64929;-71
2023/01/06 04:56:09;;;;;;;4.70;2.80;;;;;;;3.07;100.00;99485.92;105954;1287;60017;-71
2023/01/06 04:58:35;;;;;;;3.60;2.40;;;;;;;3.06;100.00;99489.27;105994;1292;59750;-71
2023/01/06 05:01:03;;;;;;;2.90;2.30;;;;;;;3.07;100.00;99492.77;105967;1289;67747;-70
2023/01/06 05:03:30;;;;;;;3.30;2.50;;;;;;;3.06;100.00;99496.28;105968;1295;59766;-71
2023/01/06 05:05:59;;;;;;;3.70;2.10;;;;;;;3.06;100.00;99498.08;105941;1287;64167;-70
2023/01/06 05:08:25;;;;;;;3.00;2.20;;;;;;;3.05;100.00;99499.48;105945;1287;59771;-70
2023/01/06 05:11:00;;;;;;;5.10;3.10;;;;;;;3.05;100.00;99502.11;105979;1287;60466;-70
2023/01/06 05:13:27;;;;;;;6.00;3.10;;;;;;;3.05;100.00;99509.32;105967;1287;67744;-70
2023/01/06 05:15:54;;;;;;;4.70;3.30;;;;;;;3.04;100.00;99509.15;105992;1287;60163;-71
2023/01/06 05:18:21;;;;;;;5.10;2.70;;;;;;;3.05;100.00;99508.96;105968;1295;65100;-69
2023/01/06 05:20:51;;;;;;;3.40;2.60;;;;;;;3.05;100.00;99506.51;105975;1288;69514;-71
2023/01/06 05:23:18;;;;;;;4.20;3.10;;;;;;;3.06;100.00;99507.89;105964;1292;59658;-70
2023/01/06 05:25:44;;;;;;;5.80;3.00;;;;;;;3.07;100.00;99515.58;105691;1299;67780;-70
2023/01/06 05:28:12;;;;;;;4.50;2.80;;;;;;;3.08;100.00;99516.77;105961;1286;59688;-72
2023/01/06 05:30:39;;;;;;;3.10;2.60;;;;;;;3.09;100.00;99514.11;105974;1292;64968;-70
2023/01/06 05:33:05;;;;;;;2.90;2.30;;;;;;;3.11;100.00;99509.69;105919;1282;60106;-70
2023/01/06 05:35:31;;;;;;;10.40;4.20;;;;;;;3.11;100.00;99510.55;105977;1291;59671;-71
2023/01/06 05:37:57;;;;;;;9.30;3.30;;;;;;;3.11;100.00;99511.96;105962;1292;59766;-70
2023/01/06 05:40:23;;;;;;;6.90;2.90;;;;;;;3.11;100.00;99509.69;105926;1274;59835;-71
2023/01/06 05:42:53;;;;;;;23.30;8.30;;;;;;;3.10;100.00;99516.38;105832;1290;178289;-70
2023/01/06 05:45:24;;;;;;;13.40;6.50;;;;;;;3.09;100.00;99519.38;105957;1290;59895;-70
2023/01/06 05:47:50;;;;;;;25.50;11.40;;;;;;;3.10;100.00;99522.52;105961;1292;59626;-70
2023/01/06 05:50:17;;;;;;;31.80;13.80;;;;;;;3.10;100.00;99524.45;105978;1282;68063;-71
2023/01/06 05:52:44;;;;;;;24.30;10.90;;;;;;;3.11;100.00;99525.66;105962;1287;60779;-72
2023/01/06 05:55:10;;;;;;;19.60;11.00;;;;;;;3.10;100.00;99525.50;105618;1294;63522;-71
2023/01/06 05:57:37;;;;;;;11.30;6.50;;;;;;;3.10;100.00;99526.38;105900;1291;59712;-71
2023/01/06 06:00:04;;;;;;;8.90;5.00;;;;;;;3.08;100.00;99522.91;105979;1291;59718;-71
2023/01/06 06:02:30;;;;;;;9.30;5.30;;;;;;;3.07;100.00;99524.00;105952;1290;76120;-71
2023/01/06 06:04:56;;;;;;;5.10;3.20;;;;;;;3.05;100.00;99523.02;105956;1290;59986;-71
2023/01/06 06:07:22;;;;;;;5.80;3.00;;;;;;;3.03;100.00;99525.70;105939;1295;59911;-71
2023/01/06 06:09:48;;;;;;;6.90;3.80;;;;;;;3.00;100.00;99522.63;105957;1291;59671;-71
2023/01/06 06:12:15;;;;;;;5.50;2.80;;;;;;;2.99;100.00;99517.21;105975;1291;59697;-70
2023/01/06 06:14:41;;;;;;;9.30;5.50;;;;;;;2.99;100.00;99519.48;105988;1295;59818;-70
2023/01/06 06:17:07;;;;;;;20.60;8.90;;;;;;;2.99;100.00;99518.44;105620;1293;59884;-69
2023/01/06 06:19:33;;;;;;;19.90;8.80;;;;;;;3.00;100.00;99525.27;105918;1282;59736;-69
2023/01/06 06:21:59;;;;;;;18.00;8.60;;;;;;;3.00;100.00;99527.89;105976;1288;59992;-71
2023/01/06 06:24:25;;;;;;;20.30;10.20;;;;;;;2.99;100.00;99530.36;105971;1292;59771;-70
2023/01/06 06:26:51;;;;;;;15.60;7.60;;;;;;;3.01;100.00;99530.67;106037;1288;60052;-70
2023/01/06 06:29:17;;;;;;;14.60;7.20;;;;;;;2.98;100.00;99524.24;105988;1291;64855;-71
2023/01/06 06:31:43;;;;;;;14.90;6.90;;;;;;;2.98;100.00;99524.09;105959;1284;59654;-76
2023/01/06 06:34:12;;;;;;;9.30;4.50;;;;;;;2.98;100.00;99529.02;105973;1287;59663;-79
2023/01/06 06:36:38;;;;;;;10.80;5.10;;;;;;;2.97;100.00;99535.52;105910;1291;67978;-82
2023/01/06 06:39:04;;;;;;;11.30;6.20;;;;;;;2.96;100.00;99534.83;106079;1289;59757;-81
2023/01/06 06:41:30;;;;;;;18.70;7.40;;;;;;;2.96;100.00;99533.98;106041;1288;60129;-72
2023/01/06 06:43:56;;;;;;;13.60;6.80;;;;;;;2.94;100.00;99544.20;106030;1287;59895;-72
2023/01/06 06:46:22;;;;;;;18.60;7.90;;;;;;;2.93;100.00;99548.45;106045;1288;59792;-72
2023/01/06 06:48:49;;;;;;;12.60;6.90;;;;;;;2.91;100.00;99552.17;106067;1283;59723;-73
2023/01/06 06:51:18;;;;;;;17.00;8.10;;;;;;;2.91;100.00;99554.10;106033;1287;59792;-72
2023/01/06 06:53:45;;;;;;;15.60;7.20;;;;;;;2.91;100.00;99548.50;106034;1289;65095;-73
2023/01/06 06:56:15;;;;;;;12.30;6.70;;;;;;;2.91;100.00;99546.21;106027;1285;59916;-71
2023/01/06 06:58:42;;;;;;;12.60;7.70;;;;;;;2.94;100.00;99543.51;106050;1288;59991;-72
2023/01/06 07:01:10;;;;;;;19.10;10.40;;;;;;;2.95;100.00;99549.27;106041;1288;59897;-73
2023/01/06 07:03:37;;;;;;;15.80;8.40;;;;;;;2.96;100.00;99554.15;106062;1288;59954;-72
2023/01/06 07:06:06;;;;;;;13.60;7.20;;;;;;;2.98;100.00;99559.88;105766;1289;64957;-73
2023/01/06 07:08:32;;;;;;;13.30;6.90;;;;;;;3.01;100.00;99560.52;106021;1287;59801;-72
2023/01/06 07:10:58;;;;;;;11.60;6.10;;;;;;;3.03;100.00;99560.81;106056;1275;59657;-72
2023/01/06 07:13:25;;;;;;;8.30;6.30;;;;;;;3.06;100.00;99563.02;105776;1286;59937;-72
2023/01/06 07:15:51;;;;;;;9.00;6.80;;;;;;;3.08;100.00;99564.35;105918;1291;59813;-72
2023/01/06 07:18:17;;;;;;;18.90;10.40;;;;;;;3.10;100.00;99563.95;106053;1288;60122;-71
2023/01/06 07:20:47;;;;;;;20.10;10.50;;;;;;;3.10;100.00;99565.89;106075;1289;60086;-72
2023/01/06 07:23:14;;;;;;;17.60;9.10;;;;;;;3.11;100.00;99565.52;106050;1288;59712;-71
2023/01/06 07:25:40;;;;;;;19.10;10.20;;;;;;;3.12;100.00;99563.90;106044;1281;67814;-73
2023/01/06 07:28:08;;;;;;;16.90;8.60;;;;;;;3.16;100.00;99559.76;106043;1289;59796;-73
2023/01/06 07:30:35;;;;;;;18.00;9.60;;;;;;;3.20;100.00;99559.12;106044;1288;65026;-72
2023/01/06 07:33:02;;;;;;;15.00;8.20;;;;;;;3.21;100.00;99560.48;105998;1281;59861;-72
2023/01/06 07:35:29;;;;;;;13.20;7.80;;;;;;;3.23;100.00;99559.38;105684;1295;59916;-72
2023/01/06 07:38:01;;;;;;;18.70;9.70;;;;;;;3.26;100.00;99567.38;106048;1295;68103;-73
2023/01/06 07:40:27;;;;;;;23.20;11.60;;;;;;;3.28;100.00;99576.96;106043;1288;60990;-72
2023/01/06 07:42:54;;;;;;;14.70;8.40;;;;;;;3.30;100.00;99580.06;106029;1288;59660;-73
2023/01/06 07:45:20;;;;;;;16.90;8.40;;;;;;;3.32;100.00;99589.86;106043;1289;59777;-71
2023/01/06 07:47:46;;;;;;;8.60;5.60;;;;;;;3.35;100.00;99592.41;106070;1288;59689;-72
2023/01/06 07:50:12;;;;;;;10.20;6.20;;;;;;;3.39;100.00;99595.30;106030;1292;59790;-74
2023/01/06 07:52:38;;;;;;;16.30;9.20;;;;;;;3.42;100.00;99597.86;106061;1282;60047;-71
2023/01/06 07:55:04;;;;;;;11.30;7.10;;;;;;;3.46;100.00;99603.17;105734;1295;59767;-72
2023/01/06 07:57:32;;;;;;;19.40;9.50;;;;;;;3.49;100.00;99604.84;106063;1282;59779;-73
2023/01/06 07:59:59;;;;;;;12.00;6.00;;;;;;;3.51;100.00;99606.70;106048;1288;59738;-72
2023/01/06 08:02:25;;;;;;;13.10;6.60;;;;;;;3.55;100.00;99607.83;105824;1290;59825;-71
2023/01/06 08:04:52;;;;;;;15.60;8.80;;;;;;;3.58;100.00;99609.69;105970;1291;59758;-72
2023/01/06 08:07:18;;;;;;;12.30;6.40;;;;;;;3.61;100.00;99613.98;106024;1295;59802;-73
2023/01/06 08:09:44;;;;;;;16.20;8.20;;;;;;;3.64;100.00;99616.00;106052;1288;59726;-72
2023/01/06 08:12:12;;;;;;;14.30;7.90;;;;;;;3.68;100.00;99617.14;106051;1288;59839;-72
2023/01/06 08:14:38;;;;;;;11.00;6.90;;;;;;;3.70;100.00;99614.77;105839;1299;59920;-71
2023/01/06 08:17:04;;;;;;;7.50;5.40;;;;;;;3.72;100.00;99611.04;106047;1289;60333;-73
2023/01/06 08:19:30;;;;;;;6.80;5.40;;;;;;;3.72;100.00;99609.26;106047;1285;59783;-72
2023/01/06 08:21:57;;;;;;;20.50;12.70;;;;;;;3.72;100.00;99606.81;106040;1285;59823;-71
2023/01/06 08:24:24;;;;;;;11.40;8.20;;;;;;;3.75;100.00;99610.05;106025;1289;59683;-72
2023/01/06 08:26:50;;;;;;;14.20;8.90;;;;;;;3.78;100.00;99607.86;106061;1288;60106;-72
2023/01/06 08:29:16;;;;;;;11.80;7.60;;;;;;;3.81;100.00;99605.67;106029;1287;59707;-72
2023/01/06 08:31:42;;;;;;;13.80;9.40;;;;;;;3.83;100.00;99606.48;105961;1284;59828;-73
2023/01/06 08:34:10;;;;;;;19.50;12.20;;;;;;;3.84;100.00;99609.27;106041;1288;60101;-74
2023/01/06 08:36:37;;;;;;;14.00;9.90;;;;;;;3.86;100.00;99611.66;105817;1291;59770;-71
2023/01/06 08:39:03;;;;;;;11.70;8.90;;;;;;;3.89;100.00;99614.39;106019;1289;67858;-72
2023/01/06 08:41:29;;;;;;;12.10;8.10;;;;;;;3.94;100.00;99616.17;106037;1281;60113;-75
2023/01/06 08:43:55;;;;;;;11.20;8.50;;;;;;;3.98;100.00;99613.95;106049;1289;59792;-72
2023/01/06 08:46:21;;;;;;;11.70;8.30;;;;;;;4.03;100.00;99614.34;105707;1290;59783;-71
2023/01/06 08:48:47;;;;;;;9.20;6.80;;;;;;;4.10;100.00;99611.82;105890;1281;59701;-71
2023/01/06 08:51:19;;;;;;;10.60;7.10;;;;;;;4.18;100.00;99608.60;106069;1289;59716;-72
2023/01/06 08:53:46;;;;;;;11.10;7.10;;;;;;;4.26;100.00;99604.13;106046;1289;60925;-74
2023/01/06 08:56:20;;;;;;;8.20;5.80;;;;;;;4.34;100.00;99606.87;105699;1289;62560;-73
2023/01/06 08:58:54;;;;;;;12.20;7.30;;;;;;;4.38;100.00;99609.72;106021;1282;59685;-71
2023/01/06 09:01:24;;;;;;;11.00;7.80;;;;;;;4.40;100.00;99609.48;105888;1285;59881;-73
2023/01/06 09:03:51;;;;;;;14.80;9.10;;;;;;;4.42;100.00;99605.90;105976;1284;66962;-74
2023/01/06 09:06:17;;;;;;;14.50;9.20;;;;;;;4.45;100.00;99603.02;106048;1288;59602;-72
2023/01/06 09:08:44;;;;;;;14.20;8.80;;;;;;;4.46;100.00;99602.44;106028;1297;64965;-72
2023/01/06 09:11:11;;;;;;;12.10;8.40;;;;;;;4.48;100.00;99605.02;106031;1281;59736;-71
2023/01/06 09:13:38;;;;;;;12.20;7.80;;;;;;;4.48;100.00;99601.67;106023;1289;59771;-72
2023/01/06 09:16:08;;;;;;;12.00;8.90;;;;;;;4.51;100.00;99603.35;106023;1282;66896;-73
2023/01/06 09:18:35;;;;;;;14.70;9.80;;;;;;;4.52;100.00;99601.38;106042;1289;59793;-72
2023/01/06 09:21:03;;;;;;;14.90;9.80;;;;;;;4.52;100.00;99591.33;105873;1289;65237;-74
2023/01/06 09:23:32;;;;;;;17.50;10.80;;;;;;;4.55;100.00;99584.89;105685;1294;59776;-73
2023/01/06 09:25:58;;;;;;;17.00;12.20;;;;;;;4.58;100.00;99580.77;106032;1288;59836;-73
2023/01/06 09:28:24;;;;;;;16.50;12.30;;;;;;;4.63;100.00;99576.20;105815;1292;59798;-73
2023/01/06 09:30:51;;;;;;;14.20;10.80;;;;;;;4.70;100.00;99576.83;106010;1289;59794;-71
2023/01/06 09:33:17;;;;;;;14.90;10.50;;;;;;;4.77;100.00;99576.94;106041;1288;59834;-71
2023/01/06 09:35:44;;;;;;;15.20;10.50;;;;;;;4.85;100.00;99575.26;106034;1289;59886;-72
2023/01/06 09:38:11;;;;;;;17.40;10.20;;;;;;;4.95;100.00;99564.72;106039;1288;60113;-71
2023/01/06 09:41:08;;;;;;;16.90;10.20;;;;;;;5.03;100.00;99561.42;106025;1289;76264;-72
2023/01/06 09:43:51;;;;;;;13.90;8.30;;;;;;;5.07;100.00;99562.35;106044;1288;61661;-72
2023/01/06 09:46:25;;;;;;;14.20;8.60;;;;;;;5.04;100.00;99560.50;106036;1288;63833;-73
2023/01/06 09:49:24;;;;;;;14.00;9.60;;;;;;;5.06;100.00;99561.70;106015;1281;59969;-72
2023/01/06 09:51:57;;;;;;;17.30;10.10;;;;;;;5.13;100.00;99554.41;106015;1287;59773;-72
2023/01/06 09:54:35;;;;;;;15.60;9.70;;;;;;;5.21;100.00;99550.77;106018;1289;66685;-72
2023/01/06 09:57:36;;;;;;;13.70;9.20;;;;;;;5.28;100.00;99547.52;105884;1284;61126;-71
2023/01/06 10:00:17;;;;;;;11.70;8.90;;;;;;;5.36;100.00;99539.11;105704;1288;63821;-71
2023/01/06 10:02:43;;;;;;;19.30;10.40;;;;;;;5.46;100.00;99531.34;106021;1287;59838;-73
2023/01/06 10:05:21;;;;;;;12.90;8.90;;;;;;;5.54;100.00;99529.11;106041;1289;59652;-71
2023/01/06 10:08:16;;;;;;;14.00;8.90;;;;;;;5.62;100.00;99520.85;106036;1281;67733;-72
2023/01/06 10:10:45;;;;;;;10.70;8.10;;;;;;;5.70;100.00;99513.68;106067;1288;60064;-72
2023/01/06 10:13:30;;;;;;;11.40;7.90;;;;;;;5.81;100.00;99508.69;106015;1288;65059;-73
2023/01/06 10:16:15;;;;;;;12.20;8.00;;;;;;;5.93;100.00;99512.64;106017;1288;59618;-71
2023/01/06 10:18:54;;;;;;;12.10;7.60;;;;;;;6.00;100.00;99516.77;106032;1288;59710;-73
2023/01/06 10:21:39;;;;;;;12.00;8.50;;;;;;;6.05;100.00;99518.34;105683;1288;75779;-72
2023/01/06 10:24:13;;;;;;;13.20;8.70;;;;;;;6.05;100.00;99512.52;105769;1294;60813;-72
2023/01/06 10:26:44;;;;;;;14.60;9.40;;;;;;;6.03;100.00;99503.95;106020;1282;62459;-72
2023/01/06 10:29:10;;;;;;;13.60;9.40;;;;;;;6.08;100.00;99493.17;106039;1287;59737;-73
2023/01/06 10:31:40;;;;;;;13.70;9.20;;;;;;;6.17;100.00;99486.28;106044;1281;59632;-73
2023/01/06 10:34:17;;;;;;;12.40;9.30;;;;;;;6.23;100.00;99482.50;106043;1288;67952;-71
2023/01/06 10:36:49;;;;;;;14.20;9.50;;;;;;;6.30;100.00;99482.21;106067;1288;60139;-72
2023/01/06 10:39:19;;;;;;;12.50;9.20;;;;;;;6.39;100.00;99480.43;106041;1287;65231;-72
2023/01/06 10:41:51;;;;;;;13.80;8.70;;;;;;;6.52;100.00;99469.45;106029;1289;59640;-73
2023/01/06 10:44:18;;;;;;;13.00;9.30;;;;;;;6.63;100.00;99466.14;106069;1288;59653;-73
2023/01/06 10:46:46;;;;;;;12.20;9.30;;;;;;;6.74;100.00;99459.88;105977;1289;67644;-74
2023/01/06 10:49:18;;;;;;;13.50;9.20;;;;;;;6.79;100.00;99456.81;106045;1288;60811;-75
2023/01/06 10:51:56;;;;;;;14.40;9.60;;;;;;;6.79;100.00;99458.04;105990;1281;63907;-73
2023/01/06 10:54:26;;;;;;;17.30;11.50;;;;;;;6.77;100.00;99456.36;106029;1280;59763;-74
2023/01/06 10:56:59;;;;;;;17.90;11.10;;;;;;;6.77;100.00;99459.52;106017;1281;59549;-72
2023/01/06 10:59:25;;;;;;;19.90;11.90;;;;;;;6.82;100.00;99451.20;106056;1288;67644;-73
2023/01/06 11:01:55;;;;;;;22.40;12.10;;;;;;;6.87;100.00;99448.52;106045;1288;60162;-73
2023/01/06 11:04:23;;;;;;;17.70;11.10;;;;;;;6.88;100.00;99445.10;106040;1288;64102;-73
2023/01/06 11:07:01;;;;;;;19.50;12.30;;;;;;;6.91;100.00;99440.72;106054;1288;59708;-73
2023/01/06 11:09:38;;;;;;;17.50;11.80;;;;;;;6.98;100.00;99437.73;106039;1281;59709;-73
2023/01/06 11:12:09;;;;;;;13.00;10.70;;;;;;;7.04;100.00;99440.48;105789;1285;66903;-75
2023/01/06 11:14:38;;;;;;;12.80;9.70;;;;;;;7.12;100.00;99442.77;106034;1288;61386;-73
2023/01/06 11:17:14;;;;;;;14.80;11.10;;;;;;;7.17;100.00;99438.47;106038;1281;62491;-73
2023/01/06 11:19:44;;;;;;;15.00;11.40;;;;;;;7.22;100.00;99436.67;106076;1288;59720;-73
2023/01/06 11:22:29;;;;;;;;;;;;;;;7.26;100.00;99436.33;105901;1291;59702;-74
2023/01/06 11:24:55;;;;;;;17.60;12.20;;;;;;;7.37;100.00;99435.45;106037;1288;67664;-73
2023/01/06 11:27:21;;;;;;;16.20;11.20;;;;;;;7.48;100.00;99434.60;106055;1288;59744;-72
2023/01/06 11:29:49;;;;;;;15.40;11.10;;;;;;;7.52;100.00;99432.79;106033;1282;59795;-74
2023/01/06 11:32:26;;;;;;;31.60;18.40;;;;;;;7.58;100.00;99438.55;106030;1288;59874;-73
2023/01/06 11:35:04;;;;;;;18.50;11.60;;;;;;;7.65;100.00;99438.19;105760;1294;60230;-73
2023/01/06 11:37:35;;;;;;;16.40;11.20;;;;;;;7.70;100.00;99440.77;106027;1289;67986;-73
2023/01/06 11:40:15;;;;;;;21.20;13.20;;;;;;;7.78;100.00;99440.77;106013;1288;60831;-73
2023/01/06 11:42:41;;;;;;;15.40;11.40;;;;;;;7.85;100.00;99440.98;106048;1281;63813;-73